sensor_id;sensor_type;location;lat;lon;timestamp;P1;durP1;ratioP1;P2;durP2;ratioP2
1959;SDS011;980;43.794;11.212;2024-03-06T18:19:12;5.25;;;5.25;;
1959;SDS011;980;43.794;11.212;2024-03-06T18:21:43;8.50;;;8.50;;
1959;SDS011;980;43.794;11.212;2024-03-06T18:24:09;9.00;;;9.00;;
1959;SDS011;980;43.794;11.212;2024-03-06T18:26:39;6.75;;;5.00;;
1959;SDS011;980;43.794;11.212;2024-03-06T18:29:04;6.75;;;6.75;;
1959;SDS011;980;43.794;11.212;2024-03-06T18:31:30;7.00;;;6.75;;
1959;SDS011;980;43.794;11.212;2024-03-06T18:33:55;6.50;;;6.50;;
1959;SDS011;980;43.794;11.212;2024-03-06T18:36:20;11.75;;;10.25;;
1959;SDS011;980;43.794;11.212;2024-03-06T18:38:46;14.25;;;7.75;;
1959;SDS011;980;43.794;11.212;2024-03-06T18:41:11;11.00;;;10.50;;
1959;SDS011;980;43.794;11.212;2024-03-06T18:43:36;14.25;;;12.00;;
1959;SDS011;980;43.794;11.212;2024-03-06T18:46:01;7.50;;;7.00;;
1959;SDS011;980;43.794;11.212;2024-03-06T18:48:27;11.00;;;8.00;;
1959;SDS011;980;43.794;11.212;2024-03-06T18:50:52;9.50;;;8.75;;
1959;SDS011;980;43.794;11.212;2024-03-06T18:53:17;8.50;;;7.25;;
1959;SDS011;980;43.794;11.212;2024-03-06T18:55:42;10.25;;;9.75;;
1959;SDS011;980;43.794;11.212;2024-03-06T18:58:08;9.00;;;9.00;;
1959;SDS011;980;43.794;11.212;2024-03-06T19:00:33;10.00;;;10.00;;
1959;SDS011;980;43.794;11.212;2024-03-06T19:02:59;8.75;;;7.25;;
1959;SDS011;980;43.794;11.212;2024-03-06T19:05:24;7.00;;;7.00;;
1959;SDS011;980;43.794;11.212;2024-03-06T19:07:50;10.00;;;7.00;;
1959;SDS011;980;43.794;11.212;2024-03-06T19:10:15;9.75;;;8.50;;
1959;SDS011;980;43.794;11.212;2024-03-06T19:12:40;9.00;;;8.50;;
1959;SDS011;980;43.794;11.212;2024-03-06T19:15:09;14.50;;;9.75;;
1959;SDS011;980;43.794;11.212;2024-03-06T19:17:34;12.50;;;10.00;;
1959;SDS011;980;43.794;11.212;2024-03-06T19:20:00;10.25;;;10.25;;
1959;SDS011;980;43.794;11.212;2024-03-06T19:22:25;10.25;;;10.25;;
1959;SDS011;980;43.794;11.212;2024-03-06T19:24:51;18.50;;;13.75;;
1959;SDS011;980;43.794;11.212;2024-03-06T19:27:17;13.25;;;12.50;;
1959;SDS011;980;43.794;11.212;2024-03-06T19:29:45;14.25;;;13.50;;
1959;SDS011;980;43.794;11.212;2024-03-06T19:32:10;12.00;;;10.75;;
1959;SDS011;980;43.794;11.212;2024-03-06T19:34:36;16.75;;;14.00;;
1959;SDS011;980;43.794;11.212;2024-03-06T19:37:01;19.00;;;16.25;;
1959;SDS011;980;43.794;11.212;2024-03-06T19:39:26;14.50;;;14.50;;
1959;SDS011;980;43.794;11.212;2024-03-06T19:41:52;18.75;;;17.25;;
1959;SDS011;980;43.794;11.212;2024-03-06T19:44:18;22.00;;;19.75;;
1959;SDS011;980;43.794;11.212;2024-03-06T19:46:44;22.75;;;21.00;;
1959;SDS011;980;43.794;11.212;2024-03-06T19:49:11;24.50;;;22.75;;
1959;SDS011;980;43.794;11.212;2024-03-06T19:51:36;18.50;;;17.25;;
1959;SDS011;980;43.794;11.212;2024-03-06T19:54:01;32.50;;;20.50;;
1959;SDS011;980;43.794;11.212;2024-03-06T19:56:27;26.50;;;21.25;;
1959;SDS011;980;43.794;11.212;2024-03-06T19:58:53;27.00;;;25.50;;
1959;SDS011;980;43.794;11.212;2024-03-06T20:01:18;32.00;;;32.00;;
1959;SDS011;980;43.794;11.212;2024-03-06T20:03:44;54.00;;;44.00;;
1959;SDS011;980;43.794;11.212;2024-03-06T20:06:09;42.00;;;38.00;;
1959;SDS011;980;43.794;11.212;2024-03-06T20:08:34;46.67;;;38.67;;
1959;SDS011;980;43.794;11.212;2024-03-06T20:10:59;42.00;;;38.00;;
1959;SDS011;980;43.794;11.212;2024-03-06T20:13:25;44.67;;;38.67;;
1959;SDS011;980;43.794;11.212;2024-03-06T20:15:50;31.50;;;28.50;;
1959;SDS011;980;43.794;11.212;2024-03-06T20:18:16;23.75;;;21.25;;
1959;SDS011;980;43.794;11.212;2024-03-06T20:20:41;24.00;;;23.25;;
1959;SDS011;980;43.794;11.212;2024-03-06T20:23:07;21.50;;;20.25;;
1959;SDS011;980;43.794;11.212;2024-03-06T20:25:34;23.50;;;20.25;;
1959;SDS011;980;43.794;11.212;2024-03-06T20:28:00;26.00;;;23.75;;
1959;SDS011;980;43.794;11.212;2024-03-06T20:30:25;33.33;;;31.00;;
1959;SDS011;980;43.794;11.212;2024-03-06T20:32:51;44.00;;;38.33;;
1959;SDS011;980;43.794;11.212;2024-03-06T20:35:16;38.67;;;35.67;;
1959;SDS011;980;43.794;11.212;2024-03-06T20:37:45;40.33;;;32.33;;
1959;SDS011;980;43.794;11.212;2024-03-06T20:40:11;25.00;;;24.67;;
1959;SDS011;980;43.794;11.212;2024-03-06T20:42:36;24.75;;;21.50;;
1959;SDS011;980;43.794;11.212;2024-03-06T20:45:01;33.33;;;27.67;;
1959;SDS011;980;43.794;11.212;2024-03-06T20:47:27;24.00;;;24.00;;
1959;SDS011;980;43.794;11.212;2024-03-06T20:49:52;24.00;;;24.00;;
1959;SDS011;980;43.794;11.212;2024-03-06T20:52:18;22.00;;;19.00;;
1959;SDS011;980;43.794;11.212;2024-03-06T20:54:43;23.25;;;21.25;;
1959;SDS011;980;43.794;11.212;2024-03-06T20:57:08;23.67;;;22.33;;
1959;SDS011;980;43.794;11.212;2024-03-06T20:59:34;20.75;;;20.75;;
1959;SDS011;980;43.794;11.212;2024-03-06T21:02:02;20.50;;;19.25;;
1959;SDS011;980;43.794;11.212;2024-03-06T21:04:27;20.00;;;18.50;;
1959;SDS011;980;43.794;11.212;2024-03-06T21:06:52;23.50;;;19.75;;
1959;SDS011;980;43.794;11.212;2024-03-06T21:09:18;24.00;;;21.33;;
1959;SDS011;980;43.794;11.212;2024-03-06T21:11:43;14.00;;;11.33;;
1959;SDS011;980;43.794;11.212;2024-03-06T21:14:08;19.50;;;17.25;;
1959;SDS011;980;43.794;11.212;2024-03-06T21:16:34;20.33;;;20.33;;
1959;SDS011;980;43.794;11.212;2024-03-06T21:18:59;18.00;;;17.00;;
1959;SDS011;980;43.794;11.212;2024-03-06T21:21:24;18.25;;;14.75;;
1959;SDS011;980;43.794;11.212;2024-03-06T21:23:50;11.75;;;11.75;;
1959;SDS011;980;43.794;11.212;2024-03-06T21:26:15;14.00;;;12.00;;
1959;SDS011;980;43.794;11.212;2024-03-06T21:28:41;12.50;;;12.50;;
1959;SDS011;980;43.794;11.212;2024-03-06T21:31:06;12.75;;;11.50;;
1959;SDS011;980;43.794;11.212;2024-03-06T21:33:32;19.50;;;15.00;;
1959;SDS011;980;43.794;11.212;2024-03-06T21:35:58;17.50;;;13.00;;
1959;SDS011;980;43.794;11.212;2024-03-06T21:38:23;15.50;;;15.50;;
1959;SDS011;980;43.794;11.212;2024-03-06T21:40:50;19.00;;;18.50;;
1959;SDS011;980;43.794;11.212;2024-03-06T21:43:15;15.50;;;15.50;;
1959;SDS011;980;43.794;11.212;2024-03-06T21:45:40;21.75;;;21.00;;
1959;SDS011;980;43.794;11.212;2024-03-06T21:48:06;19.50;;;19.25;;
1959;SDS011;980;43.794;11.212;2024-03-06T21:50:33;19.50;;;16.25;;
1959;SDS011;980;43.794;11.212;2024-03-06T21:52:58;17.50;;;17.50;;
1959;SDS011;980;43.794;11.212;2024-03-06T21:55:25;21.50;;;17.75;;
1959;SDS011;980;43.794;11.212;2024-03-06T21:57:51;16.00;;;16.00;;
1959;SDS011;980;43.794;11.212;2024-03-06T22:00:16;18.50;;;17.50;;
1959;SDS011;980;43.794;11.212;2024-03-06T22:02:43;22.00;;;21.50;;
1959;SDS011;980;43.794;11.212;2024-03-06T22:05:08;19.50;;;19.00;;
1959;SDS011;980;43.794;11.212;2024-03-06T22:07:34;24.25;;;18.00;;
1959;SDS011;980;43.794;11.212;2024-03-06T22:09:59;20.75;;;20.50;;
1959;SDS011;980;43.794;11.212;2024-03-06T22:12:24;20.25;;;16.75;;
1959;SDS011;980;43.794;11.212;2024-03-06T22:14:50;20.00;;;17.00;;
1959;SDS011;980;43.794;11.212;2024-03-06T22:17:15;15.25;;;15.25;;
1959;SDS011;980;43.794;11.212;2024-03-06T22:19:40;19.50;;;16.25;;
1959;SDS011;980;43.794;11.212;2024-03-06T22:22:06;23.00;;;18.50;;
1959;SDS011;980;43.794;11.212;2024-03-06T22:24:31;16.00;;;15.00;;
1959;SDS011;980;43.794;11.212;2024-03-06T22:26:56;23.50;;;19.00;;
1959;SDS011;980;43.794;11.212;2024-03-06T22:29:22;18.67;;;17.33;;
1959;SDS011;980;43.794;11.212;2024-03-06T22:31:47;1.33;;;0.00;;
1959;SDS011;980;43.794;11.212;2024-03-06T22:34:15;20.50;;;16.75;;
1959;SDS011;980;43.794;11.212;2024-03-06T22:36:41;18.50;;;16.75;;
1959;SDS011;980;43.794;11.212;2024-03-06T22:39:06;17.25;;;13.00;;
1959;SDS011;980;43.794;11.212;2024-03-06T22:41:31;23.67;;;16.00;;
1959;SDS011;980;43.794;11.212;2024-03-06T22:43:56;16.00;;;15.00;;
1959;SDS011;980;43.794;11.212;2024-03-06T22:46:22;22.67;;;19.33;;
1959;SDS011;980;43.794;11.212;2024-03-06T22:48:50;16.00;;;16.00;;
1959;SDS011;980;43.794;11.212;2024-03-06T22:51:15;15.33;;;15.33;;
1959;SDS011;980;43.794;11.212;2024-03-06T22:53:42;15.67;;;15.67;;
1959;SDS011;980;43.794;11.212;2024-03-06T22:56:07;19.00;;;17.00;;
1959;SDS011;980;43.794;11.212;2024-03-06T22:58:33;17.33;;;16.00;;
1959;SDS011;980;43.794;11.212;2024-03-06T23:00:59;17.33;;;15.00;;
1959;SDS011;980;43.794;11.212;2024-03-06T23:03:24;18.33;;;17.00;;
1959;SDS011;980;43.794;11.212;2024-03-06T23:05:49;16.67;;;15.00;;
1959;SDS011;980;43.794;11.212;2024-03-06T23:08:15;15.33;;;13.00;;
1959;SDS011;980;43.794;11.212;2024-03-06T23:10:40;17.67;;;16.33;;
1959;SDS011;980;43.794;11.212;2024-03-06T23:13:09;16.00;;;16.00;;
